createdAt,value
2017-10-30T00:01:29.319Z,82.80
2017-10-30T00:03:56.847Z,82.90
2017-10-30T00:06:25.144Z,83.20
2017-10-30T00:08:53.512Z,83.30
2017-10-30T00:11:21.808Z,83.40
2017-10-30T00:13:49.348Z,83.40
2017-10-30T00:16:17.662Z,83.40
2017-10-30T00:18:45.196Z,83.40
2017-10-30T00:21:14.525Z,83.20
2017-10-30T00:23:42.083Z,83.20
2017-10-30T00:26:10.043Z,83.50
2017-10-30T00:28:37.578Z,83.40
2017-10-30T00:31:05.923Z,83.40
2017-10-30T00:33:33.448Z,83.40
2017-10-30T00:36:00.971Z,83.70
2017-10-30T00:38:28.519Z,83.50
2017-10-30T00:40:56.048Z,83.50
2017-10-30T00:43:23.579Z,83.50
2017-10-30T00:45:51.146Z,83.80
2017-10-30T00:48:18.679Z,83.90
2017-10-30T00:50:46.973Z,84.10
2017-10-30T00:53:16.331Z,84.00
2017-10-30T01:03:28.899Z,84.20
2017-10-30T01:05:56.422Z,85.00
2017-10-30T01:08:23.952Z,85.10
2017-10-30T01:10:51.552Z,85.20
2017-10-30T01:13:19.089Z,85.10
2017-10-30T01:15:46.627Z,85.10
2017-10-30T01:18:15.444Z,85.20
2017-10-30T01:20:43.734Z,85.00
2017-10-30T01:23:11.255Z,85.00
2017-10-30T01:25:38.811Z,84.90
2017-10-30T01:28:06.471Z,84.90
2017-10-30T01:30:34.004Z,85.20
2017-10-30T01:33:01.584Z,84.90
2017-10-30T01:35:29.900Z,85.30
2017-10-30T01:37:57.437Z,85.30
2017-10-30T01:40:25.010Z,85.40
2017-10-30T01:42:52.544Z,85.40
2017-10-30T01:45:20.847Z,85.40
2017-10-30T01:47:48.407Z,85.30
2017-10-30T01:50:17.283Z,85.50
2017-10-30T01:52:44.818Z,85.50
2017-10-30T01:55:14.080Z,86.00
2017-10-30T01:57:41.735Z,86.00
2017-10-30T02:00:09.261Z,85.90
2017-10-30T02:02:36.823Z,85.90
2017-10-30T02:05:04.352Z,85.90
2017-10-30T02:07:31.887Z,85.80
2017-10-30T02:09:59.443Z,86.10
2017-10-30T02:12:26.966Z,86.20
2017-10-30T02:14:54.493Z,85.90
2017-10-30T02:17:22.078Z,86.10
2017-10-30T02:19:49.603Z,86.30
2017-10-30T02:22:17.136Z,86.20
2017-10-30T02:24:44.688Z,86.50
2017-10-30T02:27:12.223Z,86.40
2017-10-30T02:29:39.760Z,86.20
2017-10-30T02:32:07.325Z,86.20
2017-10-30T02:34:34.852Z,86.50
2017-10-30T02:37:02.387Z,86.60
2017-10-30T02:39:29.999Z,86.40
2017-10-30T02:41:57.522Z,86.30
2017-10-30T02:44:25.050Z,86.50
2017-10-30T02:46:52.608Z,86.20
2017-10-30T02:49:20.141Z,86.20
2017-10-30T02:51:47.693Z,86.20
2017-10-30T02:54:16.412Z,86.30
2017-10-30T02:56:43.946Z,86.60
2017-10-30T02:59:12.246Z,86.20
2017-10-30T03:01:39.832Z,86.20
2017-10-30T03:04:07.355Z,86.20
2017-10-30T03:06:34.887Z,86.20
2017-10-30T03:09:02.466Z,86.20
2017-10-30T03:11:30.755Z,86.20
2017-10-30T03:13:58.279Z,86.20
2017-10-30T03:16:25.827Z,86.20
2017-10-30T03:18:53.363Z,86.20
2017-10-30T03:21:20.896Z,86.10
2017-10-30T03:23:48.636Z,86.00
2017-10-30T03:26:16.392Z,86.00
2017-10-30T03:28:43.931Z,85.70
2017-10-30T03:31:11.935Z,85.50
2017-10-30T03:33:39.487Z,85.40
2017-10-30T03:36:07.805Z,85.30
2017-10-30T03:38:36.143Z,85.30
2017-10-30T03:41:03.671Z,85.20
2017-10-30T03:43:31.204Z,85.20
2017-10-30T03:45:58.780Z,85.30
2017-10-30T03:48:26.302Z,85.50
2017-10-30T03:50:53.833Z,85.50
2017-10-30T03:53:22.155Z,85.50
2017-10-30T03:55:49.683Z,85.50
2017-10-30T03:58:17.974Z,85.90
2017-10-30T04:00:45.520Z,85.90
2017-10-30T04:03:15.347Z,86.00
2017-10-30T04:05:42.876Z,85.90
2017-10-30T04:08:10.468Z,85.70
2017-10-30T04:10:37.993Z,85.80
2017-10-30T04:13:05.535Z,85.50
2017-10-30T04:15:33.112Z,85.20
2017-10-30T04:18:00.652Z,85.40
2017-10-30T04:20:28.176Z,85.50
2017-10-30T04:22:55.728Z,85.50
2017-10-30T04:25:23.256Z,85.50
2017-10-30T04:27:50.789Z,85.50
2017-10-30T04:30:18.380Z,85.50
2017-10-30T04:32:47.098Z,85.40
2017-10-30T04:35:16.432Z,85.30
2017-10-30T04:37:43.989Z,85.40
2017-10-30T04:40:11.516Z,85.30
2017-10-30T04:42:39.051Z,85.40
2017-10-30T04:45:07.372Z,85.00
2017-10-30T04:47:34.904Z,84.90
2017-10-30T04:50:02.433Z,84.90
2017-10-30T04:52:30.027Z,84.70
2017-10-30T04:54:57.556Z,84.40
2017-10-30T04:57:25.086Z,84.10
2017-10-30T04:59:52.641Z,84.70
2017-10-30T05:02:20.182Z,84.10
2017-10-30T05:04:47.712Z,84.20
2017-10-30T05:07:17.255Z,83.90
2017-10-30T05:09:44.788Z,83.60
2017-10-30T05:12:12.317Z,83.70
2017-10-30T05:14:39.896Z,83.40
2017-10-30T05:17:08.347Z,83.40
2017-10-30T05:19:35.885Z,83.30
2017-10-30T05:22:03.447Z,83.00
2017-10-30T05:24:30.976Z,83.00
2017-10-30T05:26:58.507Z,83.10
2017-10-30T05:29:26.822Z,82.80
2017-10-30T05:31:54.363Z,82.80
2017-10-30T05:34:22.035Z,82.70
2017-10-30T05:36:49.620Z,82.50
2017-10-30T05:39:17.149Z,82.50
2017-10-30T05:41:44.679Z,82.20
2017-10-30T05:44:12.286Z,82.20
2017-10-30T05:46:39.827Z,82.30
2017-10-30T05:49:07.361Z,82.30
2017-10-30T05:51:34.919Z,82.30
2017-10-30T05:54:02.453Z,82.30
2017-10-30T05:56:29.978Z,82.00
2017-10-30T05:58:57.556Z,81.80
2017-10-30T06:01:25.088Z,82.00
2017-10-30T06:03:52.615Z,81.80
2017-10-30T06:06:20.180Z,81.70
2017-10-30T06:08:48.476Z,81.60
2017-10-30T06:11:16.487Z,81.50
2017-10-30T06:13:44.051Z,81.40
2017-10-30T06:16:11.571Z,81.70
2017-10-30T06:18:39.103Z,81.50
2017-10-30T06:21:08.231Z,81.80
2017-10-30T06:23:35.755Z,81.80
2017-10-30T06:26:03.288Z,81.70
2017-10-30T06:28:30.835Z,81.40
2017-10-30T06:30:58.419Z,81.50
2017-10-30T06:33:25.968Z,81.60
2017-10-30T06:35:54.004Z,81.40
2017-10-30T06:38:21.535Z,81.30
2017-10-30T06:40:49.827Z,81.00
2017-10-30T06:43:17.412Z,80.90
2017-10-30T06:45:44.944Z,80.80
2017-10-30T06:48:12.479Z,80.90
2017-10-30T06:50:40.032Z,80.80
2017-10-30T06:53:07.568Z,81.10
2017-10-30T06:55:35.109Z,81.10
2017-10-30T06:58:02.686Z,80.80
2017-10-30T07:00:30.223Z,80.90
2017-10-30T07:02:57.756Z,81.00
2017-10-30T07:05:25.740Z,81.10
2017-10-30T07:07:54.714Z,80.80
2017-10-30T07:10:24.624Z,80.40
2017-10-30T07:12:52.987Z,80.90
2017-10-30T07:15:21.365Z,79.90
2017-10-30T07:17:49.687Z,79.80
2017-10-30T07:20:17.336Z,79.80
2017-10-30T07:22:44.857Z,80.00
2017-10-30T07:25:12.389Z,80.20
2017-10-30T07:27:40.029Z,80.10
2017-10-30T07:30:07.715Z,79.40
2017-10-30T07:32:35.332Z,80.40
2017-10-30T07:35:03.759Z,79.90
2017-10-30T07:37:31.771Z,79.90
2017-10-30T07:39:59.397Z,79.90
2017-10-30T07:42:26.998Z,79.60
2017-10-30T07:44:54.535Z,79.50
2017-10-30T07:47:22.070Z,78.60
2017-10-30T07:49:49.647Z,79.00
2017-10-30T07:52:17.184Z,78.90
2017-10-30T07:54:44.715Z,77.90
2017-10-30T07:57:12.282Z,76.80
2017-10-30T07:59:39.829Z,77.80
2017-10-30T08:02:07.751Z,77.60
2017-10-30T08:04:35.705Z,77.70
2017-10-30T08:07:03.273Z,77.00
2017-10-30T08:09:30.827Z,76.10
2017-10-30T08:11:58.423Z,75.20
2017-10-30T08:14:25.968Z,75.20
2017-10-30T08:16:53.495Z,73.70
2017-10-30T08:19:21.068Z,72.80
2017-10-30T08:21:48.607Z,72.70
2017-10-30T08:24:16.394Z,73.40
2017-10-30T08:26:43.963Z,74.00
2017-10-30T08:29:11.748Z,73.80
2017-10-30T08:31:40.192Z,74.50
2017-10-30T08:34:11.494Z,74.50
2017-10-30T08:36:42.274Z,74.50
2017-10-30T08:39:10.676Z,75.00
2017-10-30T08:41:38.305Z,74.30
2017-10-30T08:44:05.918Z,74.00
2017-10-30T08:46:33.651Z,74.70
2017-10-30T08:49:01.308Z,74.40
2017-10-30T08:51:28.886Z,74.20
2017-10-30T08:53:57.027Z,73.20
2017-10-30T08:56:24.676Z,73.70
2017-10-30T08:58:52.284Z,73.20
2017-10-30T09:01:19.962Z,73.80
2017-10-30T09:03:48.376Z,75.30
2017-10-30T09:06:16.569Z,75.20
2017-10-30T09:08:45.988Z,74.50
2017-10-30T09:11:14.635Z,74.50
2017-10-30T09:13:42.196Z,73.90
2017-10-30T09:16:09.736Z,73.50
2017-10-30T09:18:38.082Z,73.50
